createdAt,value
2018-02-07T00:01:46.933Z,-3.60
2018-02-07T00:04:14.494Z,-3.70
2018-02-07T00:06:40.569Z,-3.80
2018-02-07T00:09:06.665Z,-3.90
2018-02-07T00:11:33.469Z,-3.90
2018-02-07T00:13:59.723Z,-3.90
2018-02-07T00:16:26.534Z,-3.80
2018-02-07T00:18:52.611Z,-3.80
2018-02-07T00:21:18.702Z,-3.90
2018-02-07T00:23:44.804Z,-3.80
2018-02-07T00:26:11.297Z,-3.90
2018-02-07T00:28:37.374Z,-4.00
2018-02-07T00:31:03.461Z,-4.20
2018-02-07T00:33:29.537Z,-4.30
2018-02-07T00:35:55.605Z,-4.10
2018-02-07T00:38:21.934Z,-4.10
2018-02-07T00:40:47.997Z,-4.20
2018-02-07T00:43:14.070Z,-4.20
2018-02-07T00:45:40.166Z,-4.10
2018-02-07T00:48:06.229Z,-4.10
2018-02-07T00:50:32.301Z,-4.00
2018-02-07T00:52:58.397Z,-4.00
2018-02-07T00:55:24.465Z,-4.00
2018-02-07T00:57:50.545Z,-4.10
2018-02-07T01:00:17.145Z,-4.10
2018-02-07T01:02:43.953Z,-4.10
2018-02-07T01:05:10.021Z,-4.20
2018-02-07T01:07:36.091Z,-4.20
2018-02-07T01:10:02.198Z,-4.20
2018-02-07T01:12:28.254Z,-4.20
2018-02-07T01:14:54.484Z,-4.20
2018-02-07T01:17:20.569Z,-4.20
2018-02-07T01:19:46.637Z,-4.20
2018-02-07T01:22:12.724Z,-4.20
2018-02-07T01:24:38.802Z,-4.10
2018-02-07T01:27:05.341Z,-4.00
2018-02-07T01:29:32.108Z,-4.10
2018-02-07T01:31:58.178Z,-4.00
2018-02-07T01:34:24.249Z,-4.00
2018-02-07T01:36:51.121Z,-4.00
2018-02-07T01:39:17.189Z,-4.00
2018-02-07T01:41:43.249Z,-4.00
2018-02-07T01:44:09.312Z,-4.00
2018-02-07T01:46:35.401Z,-3.90
2018-02-07T01:49:01.462Z,-4.00
2018-02-07T01:51:27.525Z,-4.00
2018-02-07T01:53:53.593Z,-4.00
2018-02-07T01:56:19.665Z,-4.00
2018-02-07T01:58:45.762Z,-4.00
2018-02-07T02:01:12.517Z,-4.10
2018-02-07T02:03:38.600Z,-4.20
2018-02-07T02:06:04.671Z,-4.30
2018-02-07T02:08:30.749Z,-4.20
2018-02-07T02:10:56.817Z,-4.20
2018-02-07T02:13:22.881Z,-4.20
2018-02-07T02:15:48.977Z,-4.20
2018-02-07T02:18:16.030Z,-4.20
2018-02-07T02:20:42.122Z,-4.30
2018-02-07T02:23:08.185Z,-4.30
2018-02-07T02:25:34.253Z,-4.30
2018-02-07T02:28:00.355Z,-4.30
2018-02-07T02:30:26.427Z,-4.10
2018-02-07T02:32:52.496Z,-4.20
2018-02-07T02:35:18.569Z,-4.10
2018-02-07T02:37:44.638Z,-4.20
2018-02-07T02:40:10.722Z,-4.20
2018-02-07T02:42:36.790Z,-4.40
2018-02-07T02:45:02.869Z,-4.50
2018-02-07T02:47:28.963Z,-4.60
2018-02-07T02:49:55.030Z,-4.50
2018-02-07T02:52:21.501Z,-4.40
2018-02-07T02:54:48.329Z,-4.40
2018-02-07T02:57:14.401Z,-4.50
2018-02-07T02:59:40.501Z,-4.60
2018-02-07T03:02:06.570Z,-4.60
2018-02-07T03:04:32.633Z,-4.60
2018-02-07T03:06:58.721Z,-4.60
2018-02-07T03:09:24.802Z,-4.50
2018-02-07T03:11:50.865Z,-4.60
2018-02-07T03:14:16.961Z,-4.50
2018-02-07T03:16:43.048Z,-4.70
2018-02-07T03:19:09.121Z,-4.70
2018-02-07T03:21:35.213Z,-4.60
2018-02-07T03:24:01.289Z,-4.60
2018-02-07T03:26:27.353Z,-4.60
2018-02-07T03:28:53.443Z,-4.60
2018-02-07T03:31:19.513Z,-4.60
2018-02-07T03:33:45.645Z,-4.50
2018-02-07T03:36:12.469Z,-4.60
2018-02-07T03:38:38.529Z,-4.60
2018-02-07T03:41:04.597Z,-4.50
2018-02-07T03:43:30.675Z,-4.60
2018-02-07T03:45:56.749Z,-4.50
2018-02-07T03:48:22.809Z,-4.50
2018-02-07T03:50:49.633Z,-4.50
2018-02-07T03:53:15.688Z,-4.50
2018-02-07T03:55:42.514Z,-4.50
2018-02-07T03:58:08.570Z,-4.60
2018-02-07T04:00:34.633Z,-4.60
2018-02-07T04:03:00.723Z,-4.60
2018-02-07T04:05:26.793Z,-4.60
2018-02-07T04:07:52.862Z,-4.50
2018-02-07T04:10:18.946Z,-4.40
2018-02-07T04:12:45.024Z,-4.50
2018-02-07T04:15:11.090Z,-4.70
2018-02-07T04:17:37.182Z,-4.80
2018-02-07T04:20:03.256Z,-4.70
2018-02-07T04:22:29.319Z,-4.70
2018-02-07T04:24:55.406Z,-4.70
2018-02-07T04:27:21.737Z,-4.60
2018-02-07T04:29:47.809Z,-4.70
2018-02-07T04:32:13.885Z,-4.70
2018-02-07T04:34:39.959Z,-4.70
2018-02-07T04:37:06.054Z,-4.70
2018-02-07T04:39:32.130Z,-4.60
2018-02-07T04:41:58.885Z,-4.60
2018-02-07T04:44:24.963Z,-4.70
2018-02-07T04:46:51.032Z,-4.70
2018-02-07T04:49:17.105Z,-4.70
2018-02-07T04:51:43.928Z,-4.50
2018-02-07T04:54:10.781Z,-4.50
2018-02-07T04:56:37.602Z,-4.40
2018-02-07T04:59:03.670Z,-4.40
2018-02-07T05:01:29.728Z,-4.40
2018-02-07T05:03:55.803Z,-4.50
2018-02-07T05:06:22.621Z,-4.50
2018-02-07T05:08:48.690Z,-4.50
2018-02-07T05:11:14.765Z,-4.50
2018-02-07T05:13:40.850Z,-4.50
2018-02-07T05:16:06.921Z,-4.40
2018-02-07T05:18:33.000Z,-4.40
2018-02-07T05:20:59.117Z,-4.40
2018-02-07T05:23:25.183Z,-4.30
2018-02-07T05:25:51.257Z,-4.40
2018-02-07T05:28:17.337Z,-4.30
2018-02-07T05:30:43.402Z,-4.20
2018-02-07T05:33:09.912Z,-4.20
2018-02-07T05:35:35.977Z,-4.40
2018-02-07T05:38:02.037Z,-4.60
2018-02-07T05:40:28.126Z,-4.60
2018-02-07T05:42:54.791Z,-4.70
2018-02-07T05:45:20.857Z,-4.80
2018-02-07T05:47:47.681Z,-4.80
2018-02-07T05:50:13.825Z,-4.70
2018-02-07T05:52:39.898Z,-4.60
2018-02-07T05:55:05.961Z,-4.50
2018-02-07T05:57:32.313Z,-4.40
2018-02-07T05:59:59.109Z,-4.40
2018-02-07T06:02:25.182Z,-4.40
2018-02-07T06:04:51.254Z,-4.50
2018-02-07T06:07:17.326Z,-4.60
2018-02-07T06:09:43.401Z,-4.60
2018-02-07T06:12:09.465Z,-4.70
2018-02-07T06:14:35.555Z,-4.80
2018-02-07T06:17:01.629Z,-4.80
2018-02-07T06:19:28.522Z,-4.80
2018-02-07T06:21:54.688Z,-4.90
2018-02-07T06:24:20.753Z,-4.60
2018-02-07T06:26:46.842Z,-4.50
2018-02-07T06:29:12.910Z,-4.40
2018-02-07T06:31:38.974Z,-4.40
2018-02-07T06:34:11.978Z,-4.60
2018-02-07T06:36:38.836Z,-4.60
2018-02-07T06:39:04.914Z,-4.30
2018-02-07T06:41:30.991Z,-4.00
2018-02-07T06:43:57.078Z,-4.00
2018-02-07T06:46:23.157Z,-4.20
2018-02-07T06:48:49.225Z,-4.30
2018-02-07T06:51:15.557Z,-4.40
2018-02-07T06:53:41.637Z,-4.40
2018-02-07T06:56:08.545Z,-4.40
2018-02-07T06:58:34.670Z,-4.50
2018-02-07T07:01:00.874Z,-4.40
2018-02-07T07:03:26.965Z,-4.40
2018-02-07T07:05:53.030Z,-4.30
2018-02-07T07:08:19.105Z,-4.40
2018-02-07T07:10:45.193Z,-4.30
2018-02-07T07:13:11.254Z,-4.40
2018-02-07T07:15:37.325Z,-4.50
2018-02-07T07:18:03.418Z,-4.50
2018-02-07T07:20:29.486Z,-4.40
2018-02-07T07:22:55.550Z,-4.30
2018-02-07T07:25:21.721Z,-4.20
2018-02-07T07:27:47.789Z,-4.10
2018-02-07T07:30:14.098Z,-4.10
2018-02-07T07:32:40.181Z,-4.00
2018-02-07T07:35:06.237Z,-3.90
2018-02-07T07:37:32.325Z,-3.80
2018-02-07T07:39:58.400Z,-3.80
2018-02-07T07:42:25.218Z,-3.70
2018-02-07T07:44:51.285Z,-3.70
2018-02-07T07:47:17.359Z,-3.60
2018-02-07T07:49:43.445Z,-3.50
2018-02-07T07:52:09.517Z,-3.40
2018-02-07T07:54:35.605Z,-3.40
2018-02-07T07:57:01.773Z,-3.40
2018-02-07T07:59:27.849Z,-3.30
2018-02-07T08:01:53.921Z,-3.20
2018-02-07T08:04:20.056Z,-3.20
2018-02-07T08:06:46.158Z,-3.10
2018-02-07T08:09:12.234Z,-3.10
2018-02-07T08:11:38.318Z,-3.10
2018-02-07T08:14:04.382Z,-3.00
2018-02-07T08:16:31.212Z,-2.80
2018-02-07T08:18:57.315Z,-2.70
2018-02-07T08:21:23.386Z,-2.60
2018-02-07T08:23:49.477Z,-2.60
2018-02-07T08:26:15.545Z,-2.60
2018-02-07T08:28:41.633Z,-2.50
2018-02-07T08:31:07.725Z,-2.60
2018-02-07T08:33:33.802Z,-2.60
2018-02-07T08:36:00.613Z,-2.60
2018-02-07T08:38:26.945Z,-2.40
2018-02-07T08:40:53.027Z,-2.30
2018-02-07T08:43:19.093Z,-2.20
2018-02-07T08:45:45.176Z,-2.10
2018-02-07T08:48:11.264Z,-2.10
2018-02-07T08:50:37.325Z,-2.00
2018-02-07T08:53:03.393Z,-1.80
2018-02-07T08:55:29.512Z,-1.70
2018-02-07T08:57:55.549Z,-1.60
2018-02-07T09:00:21.629Z,-1.50
2018-02-07T09:02:47.915Z,-1.40
2018-02-07T09:05:13.986Z,-1.40
2018-02-07T09:07:40.092Z,-1.30
2018-02-07T09:10:06.226Z,-1.30
2018-02-07T09:12:32.489Z,-1.20
2018-02-07T09:14:58.584Z,-1.10
2018-02-07T09:17:24.645Z,-1.10
2018-02-07T09:19:50.730Z,-1.20
2018-02-07T09:22:16.857Z,-1.00
2018-02-07T09:24:42.930Z,-1.00
2018-02-07T09:27:09.003Z,-1.00
2018-02-07T09:29:35.135Z,-0.90
2018-02-07T09:32:01.425Z,-0.80
2018-02-07T09:34:27.493Z,-0.70
2018-02-07T09:36:53.552Z,-0.60
2018-02-07T09:39:19.628Z,-0.60
2018-02-07T09:41:45.709Z,-0.50
2018-02-07T09:44:11.801Z,-0.40
2018-02-07T09:46:37.881Z,-0.30
2018-02-07T09:49:04.054Z,-0.30
2018-02-07T09:51:30.128Z,-0.10
2018-02-07T09:53:56.954Z,-0.10
2018-02-07T09:56:23.301Z,-0.10
2018-02-07T09:58:49.400Z,0.10
2018-02-07T10:01:15.521Z,0.10
2018-02-07T10:03:41.594Z,0.00
2018-02-07T10:06:08.414Z,0.10
2018-02-07T10:08:34.477Z,0.20
2018-02-07T10:11:00.540Z,0.00
2018-02-07T10:13:26.626Z,0.00
2018-02-07T10:15:52.702Z,0.20
2018-02-07T10:18:18.777Z,0.30
2018-02-07T10:20:44.869Z,0.40
2018-02-07T10:23:10.940Z,0.40
2018-02-07T10:25:37.028Z,0.40
2018-02-07T10:28:03.114Z,0.60
2018-02-07T10:30:29.185Z,0.80
2018-02-07T10:32:55.301Z,0.70
2018-02-07T10:35:22.153Z,0.60
2018-02-07T10:37:48.344Z,0.70
2018-02-07T10:40:14.438Z,0.60
2018-02-07T10:42:40.509Z,0.70
2018-02-07T10:45:06.569Z,0.60
2018-02-07T10:47:32.666Z,0.70
2018-02-07T10:49:58.809Z,0.80
2018-02-07T10:52:25.035Z,0.90
2018-02-07T10:54:51.133Z,0.70
2018-02-07T10:57:18.874Z,0.80
2018-02-07T10:59:45.438Z,0.80
2018-02-07T11:02:11.517Z,0.90
2018-02-07T11:04:37.916Z,0.80
2018-02-07T11:07:04.012Z,1.00
2018-02-07T11:09:30.172Z,1.00
2018-02-07T11:11:56.281Z,1.10
2018-02-07T11:14:22.346Z,1.10
2018-02-07T11:16:48.416Z,1.20
2018-02-07T11:19:14.517Z,1.30
2018-02-07T11:21:40.585Z,1.20
2018-02-07T11:24:07.394Z,1.20
2018-02-07T11:26:33.503Z,1.00
2018-02-07T11:28:59.556Z,1.00
2018-02-07T11:31:25.637Z,1.10
2018-02-07T11:33:51.726Z,1.10
2018-02-07T11:36:18.533Z,1.20
2018-02-07T11:38:44.601Z,1.30
2018-02-07T11:41:10.669Z,1.40
2018-02-07T11:43:36.751Z,1.50
2018-02-07T11:46:03.572Z,1.50
2018-02-07T11:48:29.642Z,1.50
2018-02-07T11:50:55.769Z,1.50
2018-02-07T11:53:21.853Z,1.50
2018-02-07T11:55:47.927Z,1.30
2018-02-07T11:58:14.005Z,1.30
2018-02-07T12:00:40.853Z,1.40
2018-02-07T12:03:07.677Z,1.40
2018-02-07T12:05:33.745Z,1.50
2018-02-07T12:07:59.815Z,1.40
2018-02-07T12:10:25.883Z,1.50
2018-02-07T12:12:51.977Z,1.50
2018-02-07T12:15:18.058Z,1.60
2018-02-07T12:17:44.914Z,1.70
2018-02-07T12:20:11.010Z,1.70
2018-02-07T12:22:37.095Z,1.80
2018-02-07T12:25:03.170Z,1.80
2018-02-07T12:27:29.261Z,1.70
2018-02-07T12:30:02.326Z,1.80
2018-02-07T12:32:28.911Z,1.80
2018-02-07T12:34:54.992Z,1.80
2018-02-07T12:37:21.062Z,1.70
2018-02-07T12:39:47.143Z,1.60
2018-02-07T12:42:13.226Z,1.80
2018-02-07T12:44:39.306Z,1.90
2018-02-07T12:47:05.398Z,2.00
2018-02-07T12:49:31.478Z,2.10
2018-02-07T12:51:57.553Z,2.20
2018-02-07T12:54:24.037Z,2.20
2018-02-07T12:56:50.097Z,2.10
2018-02-07T12:59:16.165Z,2.00
2018-02-07T13:01:42.257Z,2.00
2018-02-07T13:04:08.342Z,1.90
2018-02-07T13:06:34.431Z,2.00
2018-02-07T13:09:00.533Z,2.00
2018-02-07T13:11:26.597Z,1.90
2018-02-07T13:13:52.801Z,1.90
2018-02-07T13:16:18.875Z,1.90
2018-02-07T13:18:44.971Z,1.90
2018-02-07T13:21:11.781Z,1.90
2018-02-07T13:23:37.923Z,2.00
2018-02-07T13:26:04.258Z,2.10
2018-02-07T13:28:30.346Z,2.10
2018-02-07T13:30:56.430Z,2.20
2018-02-07T13:33:22.501Z,2.10
2018-02-07T13:35:49.052Z,2.10
2018-02-07T13:38:15.139Z,2.00
2018-02-07T13:40:41.248Z,2.00
2018-02-07T13:43:07.391Z,1.90
2018-02-07T13:45:33.486Z,1.80
2018-02-07T13:47:59.594Z,1.90
2018-02-07T13:50:25.681Z,2.00
2018-02-07T13:52:51.749Z,2.00
2018-02-07T13:55:17.858Z,2.20
2018-02-07T13:57:43.935Z,2.20
2018-02-07T14:00:10.018Z,2.10
2018-02-07T14:02:36.114Z,1.90
2018-02-07T14:05:02.224Z,1.90
2018-02-07T14:07:28.300Z,2.00
2018-02-07T14:09:55.961Z,1.90
2018-02-07T14:12:22.035Z,1.90
2018-02-07T14:14:48.113Z,1.80
2018-02-07T14:17:14.219Z,1.70
2018-02-07T14:19:40.302Z,1.80
2018-02-07T14:22:06.473Z,1.80
2018-02-07T14:24:32.823Z,1.80
2018-02-07T14:26:58.895Z,1.90
2018-02-07T14:29:24.992Z,2.00
2018-02-07T14:31:51.863Z,2.10
2018-02-07T14:34:17.966Z,2.10
2018-02-07T14:36:44.047Z,2.10
2018-02-07T14:39:10.118Z,2.00
2018-02-07T14:41:36.198Z,1.90
2018-02-07T14:44:02.269Z,2.00
2018-02-07T14:46:28.352Z,1.90
2018-02-07T14:48:54.432Z,1.80
2018-02-07T14:51:20.930Z,1.70
2018-02-07T14:53:47.785Z,1.70
2018-02-07T14:56:13.859Z,1.60
2018-02-07T14:58:39.933Z,1.60
2018-02-07T15:01:06.012Z,1.70
2018-02-07T15:03:32.098Z,1.70
2018-02-07T15:05:58.177Z,1.70
2018-02-07T15:08:24.251Z,1.70
2018-02-07T15:10:50.337Z,1.70
2018-02-07T15:13:16.409Z,1.70
2018-02-07T15:15:42.493Z,1.70
2018-02-07T15:18:08.561Z,1.60
2018-02-07T15:20:34.637Z,1.60
2018-02-07T15:23:00.730Z,1.50
2018-02-07T15:25:26.789Z,1.50
2018-02-07T15:27:52.859Z,1.40
2018-02-07T15:30:18.960Z,1.30
2018-02-07T15:32:45.026Z,1.30
2018-02-07T15:35:11.106Z,1.20
2018-02-07T15:37:37.230Z,1.10
2018-02-07T15:40:03.320Z,1.10
2018-02-07T15:42:29.398Z,1.10
2018-02-07T15:44:55.489Z,1.10
2018-02-07T15:47:21.574Z,1.00
2018-02-07T15:49:47.640Z,1.00
2018-02-07T15:52:13.777Z,0.90
2018-02-07T15:54:39.849Z,0.80
2018-02-07T15:57:05.926Z,0.80
2018-02-07T15:59:32.761Z,0.80
2018-02-07T16:01:58.841Z,0.70
2018-02-07T16:04:24.920Z,0.70
2018-02-07T16:06:51.005Z,0.60
2018-02-07T16:09:17.087Z,0.60
2018-02-07T16:11:43.900Z,0.60
2018-02-07T16:14:10.002Z,0.50
2018-02-07T16:16:36.093Z,0.40
2018-02-07T16:19:02.220Z,0.30
2018-02-07T16:21:28.309Z,0.30
2018-02-07T16:23:54.381Z,0.20
2018-02-07T16:26:20.482Z,0.00
2018-02-07T16:28:46.550Z,-0.10
2018-02-07T16:31:12.624Z,-0.10
2018-02-07T16:33:38.714Z,-0.10
2018-02-07T16:36:04.789Z,-0.10
2018-02-07T16:38:30.867Z,-0.20
2018-02-07T16:40:56.943Z,-0.20
2018-02-07T16:43:23.016Z,-0.30
2018-02-07T16:45:49.101Z,-0.30
2018-02-07T16:48:15.169Z,-0.30
2018-02-07T16:50:41.245Z,-0.30
2018-02-07T16:53:07.349Z,-0.30
2018-02-07T16:55:33.401Z,-0.40
2018-02-07T16:57:59.580Z,-0.30
2018-02-07T17:00:25.668Z,-0.40
2018-02-07T17:02:51.750Z,-0.50
2018-02-07T17:05:18.572Z,-0.40
2018-02-07T17:07:44.646Z,-0.40
2018-02-07T17:10:10.726Z,-0.40
2018-02-07T17:12:36.816Z,-0.40
2018-02-07T17:15:02.917Z,-0.40
2018-02-07T17:17:29.221Z,-0.50
2018-02-07T17:19:55.325Z,-0.60
2018-02-07T17:22:21.404Z,-0.60
2018-02-07T17:24:47.473Z,-0.50
2018-02-07T17:27:13.538Z,-0.50
2018-02-07T17:29:39.605Z,-0.50
2018-02-07T17:32:05.696Z,-0.60
2018-02-07T17:34:31.769Z,-0.70
2018-02-07T17:36:57.834Z,-0.70
2018-02-07T17:39:23.913Z,-0.70
2018-02-07T17:41:50.008Z,-0.70
2018-02-07T17:44:16.088Z,-0.80
2018-02-07T17:46:42.184Z,-0.90
2018-02-07T17:49:08.247Z,-0.90
2018-02-07T17:51:34.335Z,-0.90
2018-02-07T17:54:00.421Z,-0.80
2018-02-07T17:56:26.489Z,-0.90
2018-02-07T17:58:52.557Z,-1.00
2018-02-07T18:01:18.630Z,-0.90
2018-02-07T18:03:44.694Z,-1.00
2018-02-07T18:06:10.784Z,-1.00
2018-02-07T18:08:36.854Z,-1.10
2018-02-07T18:11:02.926Z,-1.10
2018-02-07T18:13:29.015Z,-1.10
2018-02-07T18:15:55.072Z,-1.20
2018-02-07T18:18:21.537Z,-1.40
2018-02-07T18:20:47.641Z,-1.20
2018-02-07T18:23:13.713Z,-1.20
2018-02-07T18:25:39.866Z,-1.10
2018-02-07T18:28:05.967Z,-1.00
2018-02-07T18:30:32.047Z,-1.10
2018-02-07T18:32:58.117Z,-1.00
2018-02-07T18:35:24.197Z,-1.10
2018-02-07T18:37:50.257Z,-1.20
2018-02-07T18:40:17.069Z,-1.20
2018-02-07T18:42:43.134Z,-1.20
2018-02-07T18:45:09.218Z,-1.10
2018-02-07T18:47:35.314Z,-1.20
2018-02-07T18:50:01.386Z,-1.20
2018-02-07T18:52:27.455Z,-1.20
2018-02-07T18:54:54.482Z,-1.20
2018-02-07T18:57:20.577Z,-1.30
2018-02-07T18:59:46.670Z,-1.40
2018-02-07T19:02:12.772Z,-1.40
2018-02-07T19:04:38.857Z,-1.40
2018-02-07T19:07:04.925Z,-1.50
2018-02-07T19:09:31.001Z,-1.50
2018-02-07T19:11:57.090Z,-1.50
2018-02-07T19:14:23.173Z,-1.50
2018-02-07T19:16:49.253Z,-1.50
2018-02-07T19:19:15.338Z,-1.50
2018-02-07T19:21:41.409Z,-1.50
2018-02-07T19:24:07.506Z,-1.40
2018-02-07T19:26:34.018Z,-1.40
2018-02-07T19:29:07.045Z,-1.40
2018-02-07T19:31:33.125Z,-1.40
2018-02-07T19:33:59.938Z,-1.60
2018-02-07T19:36:26.011Z,-1.70
2018-02-07T19:38:52.098Z,-1.70
2018-02-07T19:41:18.179Z,-1.80
2018-02-07T19:43:44.263Z,-1.90
2018-02-07T19:46:11.085Z,-1.80
2018-02-07T19:48:37.158Z,-1.80
2018-02-07T19:51:03.238Z,-1.70
2018-02-07T19:53:29.355Z,-1.70
2018-02-07T19:55:55.442Z,-1.60
2018-02-07T19:58:21.534Z,-1.70
2018-02-07T20:00:48.874Z,-1.70
2018-02-07T20:03:14.966Z,-1.80
2018-02-07T20:05:41.085Z,-1.80
2018-02-07T20:08:07.158Z,-1.90
2018-02-07T20:10:33.994Z,-1.80
2018-02-07T20:13:00.118Z,-1.80
2018-02-07T20:15:26.931Z,-1.80
2018-02-07T20:17:53.007Z,-1.90
2018-02-07T20:20:19.410Z,-1.90
2018-02-07T20:22:45.505Z,-2.00
2018-02-07T20:25:11.585Z,-2.00
2018-02-07T20:27:37.658Z,-2.00
2018-02-07T20:30:03.761Z,-2.10
2018-02-07T20:32:29.850Z,-2.10
2018-02-07T20:34:56.674Z,-2.10
2018-02-07T20:37:22.746Z,-2.10
2018-02-07T20:39:48.825Z,-2.20
2018-02-07T20:42:14.929Z,-2.30
2018-02-07T20:44:41.002Z,-2.30
2018-02-07T20:47:07.814Z,-2.20
2018-02-07T20:49:33.885Z,-2.30
2018-02-07T20:51:59.957Z,-2.30
2018-02-07T20:54:26.041Z,-2.30
2018-02-07T20:56:52.166Z,-2.30
2018-02-07T20:59:18.941Z,-2.30
2018-02-07T21:01:45.027Z,-2.30
2018-02-07T21:04:11.118Z,-2.20
2018-02-07T21:06:37.968Z,-2.30
2018-02-07T21:09:04.525Z,-2.30
2018-02-07T21:11:30.593Z,-2.40
2018-02-07T21:13:56.678Z,-2.40
2018-02-07T21:16:22.749Z,-2.40
2018-02-07T21:18:48.834Z,-2.50
2018-02-07T21:21:14.914Z,-2.50
2018-02-07T21:23:41.001Z,-2.50
2018-02-07T21:26:07.157Z,-2.50
2018-02-07T21:28:33.238Z,-2.60
2018-02-07T21:30:59.328Z,-2.50
2018-02-07T21:33:25.434Z,-2.50
2018-02-07T21:35:51.524Z,-2.50
2018-02-07T21:38:17.613Z,-2.60
2018-02-07T21:40:43.689Z,-2.60
2018-02-07T21:43:09.775Z,-2.60
2018-02-07T21:45:35.862Z,-2.70
2018-02-07T21:48:01.963Z,-2.70
2018-02-07T21:50:28.226Z,-2.80
2018-02-07T21:52:54.306Z,-2.80
2018-02-07T21:55:20.421Z,-2.90
2018-02-07T21:57:46.485Z,-3.00
2018-02-07T22:00:12.570Z,-3.00
2018-02-07T22:02:38.648Z,-3.00
2018-02-07T22:05:06.203Z,-3.00
2018-02-07T22:07:32.270Z,-3.00
2018-02-07T22:09:58.365Z,-3.10
2018-02-07T22:12:24.437Z,-3.10
2018-02-07T22:14:50.522Z,-3.10
2018-02-07T22:17:17.344Z,-3.10
2018-02-07T22:19:43.418Z,-3.20
2018-02-07T22:22:09.854Z,-3.20
2018-02-07T22:24:35.933Z,-3.20
2018-02-07T22:27:02.010Z,-3.10
2018-02-07T22:29:28.110Z,-3.10
2018-02-07T22:31:54.933Z,-3.20
2018-02-07T22:34:21.022Z,-3.10
2018-02-07T22:36:47.095Z,-3.30
2018-02-07T22:39:13.925Z,-3.00
2018-02-07T22:41:39.997Z,-3.00
2018-02-07T22:44:06.070Z,-3.10
2018-02-07T22:46:32.153Z,-3.30
2018-02-07T22:48:58.221Z,-3.40
2018-02-07T22:51:24.297Z,-3.30
2018-02-07T22:53:50.477Z,-3.30
2018-02-07T22:56:17.297Z,-3.30
2018-02-07T22:58:43.379Z,-3.40
2018-02-07T23:01:09.485Z,-3.40
2018-02-07T23:03:35.577Z,-3.40
2018-02-07T23:06:01.680Z,-3.50
2018-02-07T23:08:27.761Z,-3.50
2018-02-07T23:10:53.840Z,-3.40
2018-02-07T23:13:19.924Z,-3.40
2018-02-07T23:15:46.037Z,-3.40
2018-02-07T23:18:12.881Z,-3.40
2018-02-07T23:20:39.696Z,-3.40
2018-02-07T23:23:05.766Z,-3.40
2018-02-07T23:25:31.903Z,-3.50
2018-02-07T23:27:57.976Z,-3.50
2018-02-07T23:30:24.072Z,-3.50
2018-02-07T23:32:50.143Z,-3.50
2018-02-07T23:35:16.225Z,-3.50
2018-02-07T23:37:42.314Z,-3.50
2018-02-07T23:40:08.414Z,-3.60
2018-02-07T23:42:34.477Z,-3.70
2018-02-07T23:45:00.553Z,-3.70
2018-02-07T23:47:26.623Z,-3.80
2018-02-07T23:49:52.705Z,-3.90
2018-02-07T23:52:18.803Z,-3.90
2018-02-07T23:54:44.897Z,-3.90
2018-02-07T23:57:10.986Z,-3.80
2018-02-07T23:59:37.861Z,-3.70
